sensor_id;sensor_type;location;lat;lon;timestamp;pressure;altitude;pressure_sealevel;temperature;humidity
68891;BME280;55932;48.702;8.884;2023-01-27T00:02:54;96270;;;-2.3;76.5
68891;BME280;55932;48.702;8.884;2023-01-27T00:05:25;96280;;;-2.3;76.5
68891;BME280;55932;48.702;8.884;2023-01-27T00:12:57;96280;;;-2.4;76.5
68891;BME280;55932;48.702;8.884;2023-01-27T00:18:18;96280;;;-2.4;76.5
68891;BME280;55932;48.702;8.884;2023-01-27T00:20:42;96270;;;-2.4;77
68891;BME280;55932;48.702;8.884;2023-01-27T00:25:35;96260;;;-2.3;77
68891;BME280;55932;48.702;8.884;2023-01-27T00:28:06;96270;;;-2.3;77
68891;BME280;55932;48.702;8.884;2023-01-27T00:30:37;96260;;;-2.3;77
68891;BME280;55932;48.702;8.884;2023-01-27T00:33:09;96270;;;-2.3;77
68891;BME280;55932;48.702;8.884;2023-01-27T00:40:34;96270;;;-2.4;77
68891;BME280;55932;48.702;8.884;2023-01-27T00:43:05;96260;;;-2.4;77
68891;BME280;55932;48.702;8.884;2023-01-27T00:45:35;96270;;;-2.4;77
68891;BME280;55932;48.702;8.884;2023-01-27T00:48:07;96270;;;-2.4;77
68891;BME280;55932;48.702;8.884;2023-01-27T00:50:37;96270;;;-2.5;77
68891;BME280;55932;48.702;8.884;2023-01-27T00:53:08;96280;;;-2.4;77
68891;BME280;55932;48.702;8.884;2023-01-27T00:55:39;96260;;;-2.4;77
68891;BME280;55932;48.702;8.884;2023-01-27T00:58:10;96260;;;-2.4;77
68891;BME280;55932;48.702;8.884;2023-01-27T01:00:40;96270;;;-2.4;77
68891;BME280;55932;48.702;8.884;2023-01-27T01:15:51;96270;;;-2.4;76.5
68891;BME280;55932;48.702;8.884;2023-01-27T01:18:22;96280;;;-2.4;76.5
68891;BME280;55932;48.702;8.884;2023-01-27T01:20:52;96270;;;-2.4;76.5
68891;BME280;55932;48.702;8.884;2023-01-27T01:23:34;96280;;;-2.4;77
68891;BME280;55932;48.702;8.884;2023-01-27T01:28:18;96270;;;-2.4;76.5
68891;BME280;55932;48.702;8.884;2023-01-27T01:30:49;96270;;;-2.3;76.5
68891;BME280;55932;48.702;8.884;2023-01-27T01:38:21;96270;;;-2.4;77
68891;BME280;55932;48.702;8.884;2023-01-27T01:40:52;96270;;;-2.3;77
68891;BME280;55932;48.702;8.884;2023-01-27T01:43:23;96270;;;-2.4;76.5
68891;BME280;55932;48.702;8.884;2023-01-27T01:45:54;96270;;;-2.3;76.5
68891;BME280;55932;48.702;8.884;2023-01-27T01:51:11;96270;;;-2.4;76.5
68891;BME280;55932;48.702;8.884;2023-01-27T01:53:40;96260;;;-2.4;76.5
68891;BME280;55932;48.702;8.884;2023-01-27T01:58:32;96260;;;-2.5;77
68891;BME280;55932;48.702;8.884;2023-01-27T02:01:10;96250;;;-2.5;77
68891;BME280;55932;48.702;8.884;2023-01-27T02:06:05;96250;;;-2.5;77
68891;BME280;55932;48.702;8.884;2023-01-27T02:11:13;96260;;;-2.4;77
68891;BME280;55932;48.702;8.884;2023-01-27T02:13:43;96250;;;-2.4;77
68891;BME280;55932;48.702;8.884;2023-01-27T02:16:14;96250;;;-2.5;77
68891;BME280;55932;48.702;8.884;2023-01-27T02:21:08;96240;;;-2.4;77
68891;BME280;55932;48.702;8.884;2023-01-27T02:23:55;96240;;;-2.4;77
68891;BME280;55932;48.702;8.884;2023-01-27T02:26:19;96250;;;-2.4;77
68891;BME280;55932;48.702;8.884;2023-01-27T02:28:52;96250;;;-2.4;77
68891;BME280;55932;48.702;8.884;2023-01-27T02:31:25;96250;;;-2.4;77
68891;BME280;55932;48.702;8.884;2023-01-27T02:33:57;96240;;;-2.4;77
68891;BME280;55932;48.702;8.884;2023-01-27T02:36:19;96240;;;-2.3;77
68891;BME280;55932;48.702;8.884;2023-01-27T02:38:49;96240;;;-2.3;77
68891;BME280;55932;48.702;8.884;2023-01-27T02:43:42;96240;;;-2.3;77
68891;BME280;55932;48.702;8.884;2023-01-27T02:46:14;96240;;;-2.3;77
68891;BME280;55932;48.702;8.884;2023-01-27T02:48:45;96250;;;-2.3;76.5
68891;BME280;55932;48.702;8.884;2023-01-27T02:58:41;96230;;;-2.3;76.5
68891;BME280;55932;48.702;8.884;2023-01-27T03:01:12;96240;;;-2.3;76.5
68891;BME280;55932;48.702;8.884;2023-01-27T03:03:42;96230;;;-2.4;77
68891;BME280;55932;48.702;8.884;2023-01-27T03:06:14;96230;;;-2.4;77
68891;BME280;55932;48.702;8.884;2023-01-27T03:08:44;96240;;;-2.3;77
68891;BME280;55932;48.702;8.884;2023-01-27T03:11:15;96240;;;-2.2;77
68891;BME280;55932;48.702;8.884;2023-01-27T03:13:52;96240;;;-2.3;76.5
68891;BME280;55932;48.702;8.884;2023-01-27T03:16:23;96240;;;-2.3;77
68891;BME280;55932;48.702;8.884;2023-01-27T03:18:54;96250;;;-2.4;77
68891;BME280;55932;48.702;8.884;2023-01-27T03:26:19;96260;;;-2.3;77
68891;BME280;55932;48.702;8.884;2023-01-27T03:28:50;96240;;;-2.4;77
68891;BME280;55932;48.702;8.884;2023-01-27T03:31:21;96240;;;-2.3;77.5
68891;BME280;55932;48.702;8.884;2023-01-27T03:33:52;96240;;;-2.3;77
68891;BME280;55932;48.702;8.884;2023-01-27T03:36:22;96240;;;-2.2;77
68891;BME280;55932;48.702;8.884;2023-01-27T03:38:53;96240;;;-2.2;76.5
68891;BME280;55932;48.702;8.884;2023-01-27T03:41:24;96240;;;-2.2;76.5
68891;BME280;55932;48.702;8.884;2023-01-27T03:44:01;96240;;;-2.3;77
68891;BME280;55932;48.702;8.884;2023-01-27T03:46:32;96240;;;-2.1;76.5
68891;BME280;55932;48.702;8.884;2023-01-27T03:49:13;96230;;;-2.1;77
68891;BME280;55932;48.702;8.884;2023-01-27T04:01:42;96250;;;-1.9;76
68891;BME280;55932;48.702;8.884;2023-01-27T04:04:12;96260;;;-2;76
68891;BME280;55932;48.702;8.884;2023-01-27T04:06:55;96260;;;-2.1;76.5
68891;BME280;55932;48.702;8.884;2023-01-27T04:09:13;96260;;;-2.2;76.5
68891;BME280;55932;48.702;8.884;2023-01-27T04:14:13;96260;;;-2.2;77
68891;BME280;55932;48.702;8.884;2023-01-27T04:16:43;96260;;;-2.2;77
68891;BME280;55932;48.702;8.884;2023-01-27T04:21:38;96270;;;-2.2;77
68891;BME280;55932;48.702;8.884;2023-01-27T04:24:10;96260;;;-2.2;77
68891;BME280;55932;48.702;8.884;2023-01-27T04:26:46;96260;;;-2.2;77
68891;BME280;55932;48.702;8.884;2023-01-27T04:34:18;96260;;;-2.3;77
68891;BME280;55932;48.702;8.884;2023-01-27T04:36:49;96260;;;-2.3;77
68891;BME280;55932;48.702;8.884;2023-01-27T04:41:43;96280;;;-2.3;77
68891;BME280;55932;48.702;8.884;2023-01-27T04:44:14;96270;;;-2.3;77.5
68891;BME280;55932;48.702;8.884;2023-01-27T04:46:45;96270;;;-2.3;77
68891;BME280;55932;48.702;8.884;2023-01-27T04:56:52;96270;;;-2.3;76.5
68891;BME280;55932;48.702;8.884;2023-01-27T04:59:12;96270;;;-2.3;76.5
68891;BME280;55932;48.702;8.884;2023-01-27T05:01:45;96270;;;-2.3;76.5
68891;BME280;55932;48.702;8.884;2023-01-27T05:04:13;96270;;;-2.3;77
68891;BME280;55932;48.702;8.884;2023-01-27T05:06:44;96270;;;-2.3;77
68891;BME280;55932;48.702;8.884;2023-01-27T05:09:15;96270;;;-2.3;77
68891;BME280;55932;48.702;8.884;2023-01-27T05:11:45;96270;;;-2.3;77
68891;BME280;55932;48.702;8.884;2023-01-27T05:14:16;96270;;;-2.3;77
68891;BME280;55932;48.702;8.884;2023-01-27T05:16:47;96270;;;-2.3;77
68891;BME280;55932;48.702;8.884;2023-01-27T05:29:27;96260;;;-2.3;77
68891;BME280;55932;48.702;8.884;2023-01-27T05:31:58;96260;;;-2.3;76.5
68891;BME280;55932;48.702;8.884;2023-01-27T05:37:06;96280;;;-2.4;76.5
68891;BME280;55932;48.702;8.884;2023-01-27T05:39:40;96280;;;-2.4;76.5
68891;BME280;55932;48.702;8.884;2023-01-27T05:44:31;96270;;;-2.4;76.5
68891;BME280;55932;48.702;8.884;2023-01-27T05:47:01;96280;;;-2.4;76.5
68891;BME280;55932;48.702;8.884;2023-01-27T05:49:33;96270;;;-2.4;76.5
68891;BME280;55932;48.702;8.884;2023-01-27T05:52:10;96280;;;-2.4;77
68891;BME280;55932;48.702;8.884;2023-01-27T05:57:18;96300;;;-2.4;76.5
68891;BME280;55932;48.702;8.884;2023-01-27T06:02:13;96310;;;-2.4;76.5
68891;BME280;55932;48.702;8.884;2023-01-27T06:04:43;96310;;;-2.4;77
68891;BME280;55932;48.702;8.884;2023-01-27T06:09:37;96320;;;-2.4;77
68891;BME280;55932;48.702;8.884;2023-01-27T06:12:08;96310;;;-2.4;77
68891;BME280;55932;48.702;8.884;2023-01-27T06:14:40;96320;;;-2.3;77
68891;BME280;55932;48.702;8.884;2023-01-27T06:17:15;96310;;;-2.3;77
68891;BME280;55932;48.702;8.884;2023-01-27T06:22:04;96310;;;-2.3;77
68891;BME280;55932;48.702;8.884;2023-01-27T06:24:36;96290;;;-2.3;77
68891;BME280;55932;48.702;8.884;2023-01-27T06:27:06;96300;;;-2.3;77
68891;BME280;55932;48.702;8.884;2023-01-27T06:29:36;96300;;;-2.3;77
68891;BME280;55932;48.702;8.884;2023-01-27T06:32:07;96300;;;-2.3;77
68891;BME280;55932;48.702;8.884;2023-01-27T06:34:39;96300;;;-2.3;76.5
68891;BME280;55932;48.702;8.884;2023-01-27T06:37:11;96300;;;-2.3;77
68891;BME280;55932;48.702;8.884;2023-01-27T06:39:39;96310;;;-2.3;77
68891;BME280;55932;48.702;8.884;2023-01-27T06:47:24;96310;;;-2.2;76.5
68891;BME280;55932;48.702;8.884;2023-01-27T06:50:02;96320;;;-2.2;77
68891;BME280;55932;48.702;8.884;2023-01-27T06:54:55;96330;;;-2.2;77
68891;BME280;55932;48.702;8.884;2023-01-27T06:57:26;96330;;;-2.2;77
68891;BME280;55932;48.702;8.884;2023-01-27T06:59:49;96330;;;-2.1;76.5
68891;BME280;55932;48.702;8.884;2023-01-27T07:02:20;96330;;;-2.1;76.5
68891;BME280;55932;48.702;8.884;2023-01-27T07:04:52;96330;;;-2.1;76.5
68891;BME280;55932;48.702;8.884;2023-01-27T07:07:22;96340;;;-2.1;76.5
68891;BME280;55932;48.702;8.884;2023-01-27T07:09:53;96350;;;-2.1;76.5
68891;BME280;55932;48.702;8.884;2023-01-27T07:12:24;96350;;;-2.2;76.5
68891;BME280;55932;48.702;8.884;2023-01-27T07:15:04;96350;;;-2.2;76.5
68891;BME280;55932;48.702;8.884;2023-01-27T07:19:57;96350;;;-2.2;76.5
68891;BME280;55932;48.702;8.884;2023-01-27T07:22:29;96360;;;-2.2;76.5
68891;BME280;55932;48.702;8.884;2023-01-27T07:27:30;96380;;;-2.2;77
68891;BME280;55932;48.702;8.884;2023-01-27T07:30:02;96380;;;-2.2;76.5
68891;BME280;55932;48.702;8.884;2023-01-27T07:32:32;96380;;;-2.2;76.5
68891;BME280;55932;48.702;8.884;2023-01-27T07:35:03;96380;;;-2.2;76.5
68891;BME280;55932;48.702;8.884;2023-01-27T07:37:34;96380;;;-2.2;77
68891;BME280;55932;48.702;8.884;2023-01-27T07:40:05;96390;;;-2.2;76.5
68891;BME280;55932;48.702;8.884;2023-01-27T07:42:37;96380;;;-2.2;76.5
68891;BME280;55932;48.702;8.884;2023-01-27T07:45:13;96390;;;-2.2;77
68891;BME280;55932;48.702;8.884;2023-01-27T07:47:37;96390;;;-2.1;77
68891;BME280;55932;48.702;8.884;2023-01-27T07:50:15;96400;;;-2.1;77
68891;BME280;55932;48.702;8.884;2023-01-27T07:52:46;96390;;;-2;77
68891;BME280;55932;48.702;8.884;2023-01-27T08:00:19;96390;;;-2.1;77
68891;BME280;55932;48.702;8.884;2023-01-27T08:02:52;96380;;;-2;77
68891;BME280;55932;48.702;8.884;2023-01-27T08:07:43;96400;;;-1.8;76.5
68891;BME280;55932;48.702;8.884;2023-01-27T08:10:21;96380;;;-1.7;76.5
68891;BME280;55932;48.702;8.884;2023-01-27T08:15:16;96400;;;-1.7;76.5
68891;BME280;55932;48.702;8.884;2023-01-27T08:18:02;96390;;;-1.7;76.5
68891;BME280;55932;48.702;8.884;2023-01-27T08:22:54;96400;;;-1.8;76.5
68891;BME280;55932;48.702;8.884;2023-01-27T08:25:24;96410;;;-1.8;76.5
68891;BME280;55932;48.702;8.884;2023-01-27T08:30:45;96410;;;-1.8;76.5
68891;BME280;55932;48.702;8.884;2023-01-27T08:33:17;96410;;;-1.7;76.5
68891;BME280;55932;48.702;8.884;2023-01-27T08:35:27;96410;;;-1.8;76.5
68891;BME280;55932;48.702;8.884;2023-01-27T08:37:51;96410;;;-1.7;76.5
68891;BME280;55932;48.702;8.884;2023-01-27T08:40:41;96420;;;-1.7;76.5
68891;BME280;55932;48.702;8.884;2023-01-27T08:45:28;96430;;;-1.7;76.5
68891;BME280;55932;48.702;8.884;2023-01-27T08:47:59;96420;;;-1.7;76.5
68891;BME280;55932;48.702;8.884;2023-01-27T08:50:23;96430;;;-1.8;76.5
68891;BME280;55932;48.702;8.884;2023-01-27T08:52:54;96420;;;-1.9;76.5
68891;BME280;55932;48.702;8.884;2023-01-27T08:55:25;96430;;;-1.9;76.5
68891;BME280;55932;48.702;8.884;2023-01-27T08:57:49;96430;;;-1.9;77
68891;BME280;55932;48.702;8.884;2023-01-27T09:05:34;96430;;;-1.9;76.5
68891;BME280;55932;48.702;8.884;2023-01-27T09:08:11;96420;;;-1.9;76.5
68891;BME280;55932;48.702;8.884;2023-01-27T09:10:48;96420;;;-1.8;76.5
68891;BME280;55932;48.702;8.884;2023-01-27T09:15:29;96430;;;-1.7;76.5
68891;BME280;55932;48.702;8.884;2023-01-27T09:17:59;96430;;;-1.7;76.5
68891;BME280;55932;48.702;8.884;2023-01-27T09:20:30;96430;;;-1.7;76.5
68891;BME280;55932;48.702;8.884;2023-01-27T09:22:54;96430;;;-1.7;76.5
68891;BME280;55932;48.702;8.884;2023-01-27T09:25:28;96420;;;-1.8;76.5
68891;BME280;55932;48.702;8.884;2023-01-27T09:32:58;96420;;;-1.8;76.5
68891;BME280;55932;48.702;8.884;2023-01-27T09:35:29;96430;;;-1.8;76.5
68891;BME280;55932;48.702;8.884;2023-01-27T09:37:59;96420;;;-1.8;76.5
68891;BME280;55932;48.702;8.884;2023-01-27T09:43:14;96440;;;-1.8;76.5
68891;BME280;55932;48.702;8.884;2023-01-27T09:45:41;96430;;;-1.8;76.5
68891;BME280;55932;48.702;8.884;2023-01-27T09:53:09;96430;;;-1.6;76.5
68891;BME280;55932;48.702;8.884;2023-01-27T09:55:52;96420;;;-1.5;76.5
68891;BME280;55932;48.702;8.884;2023-01-27T09:58:22;96430;;;-1.6;76.5
68891;BME280;55932;48.702;8.884;2023-01-27T10:10:51;96430;;;-1.5;76.5
68891;BME280;55932;48.702;8.884;2023-01-27T10:15:56;96440;;;-1.6;76.5
68891;BME280;55932;48.702;8.884;2023-01-27T10:18:27;96440;;;-1.6;76.5
68891;BME280;55932;48.702;8.884;2023-01-27T10:21:13;96440;;;-1.6;76.5
68891;BME280;55932;48.702;8.884;2023-01-27T10:28:25;96440;;;-1.5;76.5
68891;BME280;55932;48.702;8.884;2023-01-27T10:33:20;96440;;;-1.4;76.5
68891;BME280;55932;48.702;8.884;2023-01-27T10:35:51;96440;;;-1.4;76
68891;BME280;55932;48.702;8.884;2023-01-27T10:38:27;96430;;;-1.5;76
68891;BME280;55932;48.702;8.884;2023-01-27T10:43:28;96430;;;-1.5;76
68891;BME280;55932;48.702;8.884;2023-01-27T10:45:57;96420;;;-1.4;76
68891;BME280;55932;48.702;8.884;2023-01-27T10:49:29;96430;;;-1.3;76
68891;BME280;55932;48.702;8.884;2023-01-27T10:53:29;96420;;;-1;75.5
68891;BME280;55932;48.702;8.884;2023-01-27T10:56:08;96430;;;-0.8;75
68891;BME280;55932;48.702;8.884;2023-01-27T10:58:38;96440;;;-0.9;75
68891;BME280;55932;48.702;8.884;2023-01-27T11:03:33;96430;;;-1;75.5
68891;BME280;55932;48.702;8.884;2023-01-27T11:08:39;96440;;;-1;75.5
68891;BME280;55932;48.702;8.884;2023-01-27T11:11:08;96430;;;-0.9;75.5
68891;BME280;55932;48.702;8.884;2023-01-27T11:16:04;96440;;;-0.8;75.5
68891;BME280;55932;48.702;8.884;2023-01-27T11:18:35;96430;;;-0.8;75.5
68891;BME280;55932;48.702;8.884;2023-01-27T11:21:06;96440;;;-0.9;75
68891;BME280;55932;48.702;8.884;2023-01-27T11:23:43;96430;;;-0.9;75.5
68891;BME280;55932;48.702;8.884;2023-01-27T11:26:19;96440;;;-0.9;75.5
68891;BME280;55932;48.702;8.884;2023-01-27T11:28:51;96440;;;-0.8;75.5
68891;BME280;55932;48.702;8.884;2023-01-27T11:33:44;96430;;;-0.9;75.5
68891;BME280;55932;48.702;8.884;2023-01-27T11:36:09;96420;;;-0.9;75.5
68891;BME280;55932;48.702;8.884;2023-01-27T11:41:04;96430;;;-0.9;75.5
68891;BME280;55932;48.702;8.884;2023-01-27T11:43:34;96430;;;-0.9;75.5
68891;BME280;55932;48.702;8.884;2023-01-27T11:46:05;96440;;;-0.8;75.5
68891;BME280;55932;48.702;8.884;2023-01-27T11:53:38;96420;;;-0.7;75.5
68891;BME280;55932;48.702;8.884;2023-01-27T11:56:10;96410;;;-0.6;75.5
68891;BME280;55932;48.702;8.884;2023-01-27T11:58:43;96410;;;-0.6;75.5
68891;BME280;55932;48.702;8.884;2023-01-27T12:06:23;96400;;;-0.2;76
68891;BME280;55932;48.702;8.884;2023-01-27T12:11:17;96400;;;-0.3;76
68891;BME280;55932;48.702;8.884;2023-01-27T12:13:47;96400;;;-0.3;75.5
68891;BME280;55932;48.702;8.884;2023-01-27T12:16:14;96390;;;-0.4;75.5
68891;BME280;55932;48.702;8.884;2023-01-27T12:18:47;96400;;;-0.5;76
68891;BME280;55932;48.702;8.884;2023-01-27T12:21:15;96400;;;-0.5;76
68891;BME280;55932;48.702;8.884;2023-01-27T12:28:48;96400;;;-0.6;76
68891;BME280;55932;48.702;8.884;2023-01-27T12:33:57;96390;;;-0.7;76
68891;BME280;55932;48.702;8.884;2023-01-27T12:36:27;96390;;;-0.7;76
68891;BME280;55932;48.702;8.884;2023-01-27T12:39:04;96390;;;-0.6;76
68891;BME280;55932;48.702;8.884;2023-01-27T12:41:30;96380;;;-0.5;76
68891;BME280;55932;48.702;8.884;2023-01-27T12:44:07;96380;;;-0.4;76
68891;BME280;55932;48.702;8.884;2023-01-27T12:46:31;96380;;;-0.4;76
68891;BME280;55932;48.702;8.884;2023-01-27T12:49:09;96390;;;-0.4;76
68891;BME280;55932;48.702;8.884;2023-01-27T12:51:35;96390;;;-0.4;76
68891;BME280;55932;48.702;8.884;2023-01-27T12:58:58;96390;;;-0.7;76
68891;BME280;55932;48.702;8.884;2023-01-27T13:01:29;96400;;;-0.7;76
68891;BME280;55932;48.702;8.884;2023-01-27T13:04:00;96400;;;-0.6;76
68891;BME280;55932;48.702;8.884;2023-01-27T13:06:32;96400;;;-0.5;76
68891;BME280;55932;48.702;8.884;2023-01-27T13:09:44;96390;;;-0.5;76
68891;BME280;55932;48.702;8.884;2023-01-27T13:11:38;96400;;;-0.6;76
68891;BME280;55932;48.702;8.884;2023-01-27T13:14:13;96400;;;-0.5;76
68891;BME280;55932;48.702;8.884;2023-01-27T13:16:34;96400;;;-0.5;76
68891;BME280;55932;48.702;8.884;2023-01-27T13:19:13;96400;;;-0.6;76
68891;BME280;55932;48.702;8.884;2023-01-27T13:21:35;96400;;;-0.6;76
68891;BME280;55932;48.702;8.884;2023-01-27T13:24:09;96400;;;-0.6;76
68891;BME280;55932;48.702;8.884;2023-01-27T13:31:42;96400;;;-0.6;76
68891;BME280;55932;48.702;8.884;2023-01-27T13:34:12;96400;;;-0.6;76
68891;BME280;55932;48.702;8.884;2023-01-27T13:37:08;96400;;;-0.5;76.5
68891;BME280;55932;48.702;8.884;2023-01-27T13:39:27;96400;;;-0.5;76
68891;BME280;55932;48.702;8.884;2023-01-27T13:41:55;96400;;;-0.5;76
68891;BME280;55932;48.702;8.884;2023-01-27T13:44:34;96400;;;-0.6;76
68891;BME280;55932;48.702;8.884;2023-01-27T13:49:51;96390;;;-0.6;76
68891;BME280;55932;48.702;8.884;2023-01-27T13:54:20;96400;;;-0.6;76
68891;BME280;55932;48.702;8.884;2023-01-27T13:56:56;96400;;;-0.7;76
68891;BME280;55932;48.702;8.884;2023-01-27T13:59:39;96410;;;-0.7;76
68891;BME280;55932;48.702;8.884;2023-01-27T14:03:00;96420;;;-0.8;76
68891;BME280;55932;48.702;8.884;2023-01-27T14:09:29;96430;;;-0.9;76.5
68891;BME280;55932;48.702;8.884;2023-01-27T14:14:31;96430;;;-0.8;76.5
68891;BME280;55932;48.702;8.884;2023-01-27T14:17:10;96430;;;-0.8;76.5
68891;BME280;55932;48.702;8.884;2023-01-27T14:24:52;96430;;;-0.9;76.5
68891;BME280;55932;48.702;8.884;2023-01-27T14:27:11;96430;;;-0.9;76
68891;BME280;55932;48.702;8.884;2023-01-27T14:30:41;96430;;;-1;76.5
68891;BME280;55932;48.702;8.884;2023-01-27T14:32:14;96440;;;-0.9;76.5
68891;BME280;55932;48.702;8.884;2023-01-27T14:37:34;96440;;;-0.9;76.5
68891;BME280;55932;48.702;8.884;2023-01-27T14:39:41;96440;;;-0.9;76.5
68891;BME280;55932;48.702;8.884;2023-01-27T14:42:06;96440;;;-0.9;76.5
68891;BME280;55932;48.702;8.884;2023-01-27T14:44:49;96440;;;-1;76.5
68891;BME280;55932;48.702;8.884;2023-01-27T14:50:05;96440;;;-1;76.5
68891;BME280;55932;48.702;8.884;2023-01-27T14:52:31;96440;;;-1;76.5
68891;BME280;55932;48.702;8.884;2023-01-27T14:57:11;96440;;;-1;76.5
68891;BME280;55932;48.702;8.884;2023-01-27T14:59:41;96430;;;-1;76.5
68891;BME280;55932;48.702;8.884;2023-01-27T15:04:34;96430;;;-1;76.5
68891;BME280;55932;48.702;8.884;2023-01-27T15:07:06;96440;;;-1.1;76.5
68891;BME280;55932;48.702;8.884;2023-01-27T15:14:39;96440;;;-1.1;76.5
68891;BME280;55932;48.702;8.884;2023-01-27T15:17:41;96440;;;-1.1;76.5
68891;BME280;55932;48.702;8.884;2023-01-27T15:19:42;96450;;;-1.1;76.5
68891;BME280;55932;48.702;8.884;2023-01-27T15:23:15;96450;;;-1.1;77
68891;BME280;55932;48.702;8.884;2023-01-27T15:25:04;96440;;;-1.1;76.5
68891;BME280;55932;48.702;8.884;2023-01-27T15:27:16;96440;;;-1.1;76.5
68891;BME280;55932;48.702;8.884;2023-01-27T15:29:48;96450;;;-1.1;76.5
68891;BME280;55932;48.702;8.884;2023-01-27T15:32:12;96440;;;-1.1;76.5
68891;BME280;55932;48.702;8.884;2023-01-27T15:34:43;96430;;;-1.1;76.5
68891;BME280;55932;48.702;8.884;2023-01-27T15:42:14;96450;;;-1;76.5
68891;BME280;55932;48.702;8.884;2023-01-27T15:45:00;96450;;;-1;76.5
68891;BME280;55932;48.702;8.884;2023-01-27T15:47:18;96450;;;-1.1;76.5
68891;BME280;55932;48.702;8.884;2023-01-27T15:52:24;96460;;;-1.1;76.5
68891;BME280;55932;48.702;8.884;2023-01-27T15:54:55;96460;;;-1.2;76.5
68891;BME280;55932;48.702;8.884;2023-01-27T15:57:26;96470;;;-1.2;76.5
68891;BME280;55932;48.702;8.884;2023-01-27T15:59:49;96470;;;-1.2;76.5
68891;BME280;55932;48.702;8.884;2023-01-27T16:02:27;96470;;;-1.2;76.5
68891;BME280;55932;48.702;8.884;2023-01-27T16:12:36;96480;;;-1.2;76.5
68891;BME280;55932;48.702;8.884;2023-01-27T16:17:24;96500;;;-1.2;76.5
68891;BME280;55932;48.702;8.884;2023-01-27T16:20:01;96510;;;-1.2;76.5
68891;BME280;55932;48.702;8.884;2023-01-27T16:22:25;96510;;;-1.2;76.5
68891;BME280;55932;48.702;8.884;2023-01-27T16:25:29;96510;;;-1.2;76.5
68891;BME280;55932;48.702;8.884;2023-01-27T16:28:30;96510;;;-1.2;76.5
68891;BME280;55932;48.702;8.884;2023-01-27T16:30:11;96520;;;-1.2;77
68891;BME280;55932;48.702;8.884;2023-01-27T16:32:37;96520;;;-1.2;77
68891;BME280;55932;48.702;8.884;2023-01-27T16:35:12;96520;;;-1.2;77
68891;BME280;55932;48.702;8.884;2023-01-27T16:42:55;96520;;;-1.2;77
68891;BME280;55932;48.702;8.884;2023-01-27T16:45:28;96520;;;-1.2;76.5
68891;BME280;55932;48.702;8.884;2023-01-27T16:50:29;96520;;;-1.2;77
68891;BME280;55932;48.702;8.884;2023-01-27T16:52:40;96520;;;-1.2;77
68891;BME280;55932;48.702;8.884;2023-01-27T16:57:37;96510;;;-1.1;76.5
68891;BME280;55932;48.702;8.884;2023-01-27T17:00:07;96520;;;-1.1;76.5
68891;BME280;55932;48.702;8.884;2023-01-27T17:10:12;96530;;;-1.2;77
68891;BME280;55932;48.702;8.884;2023-01-27T17:12:41;96520;;;-1.1;77
68891;BME280;55932;48.702;8.884;2023-01-27T17:17:54;96530;;;-1.1;77
68891;BME280;55932;48.702;8.884;2023-01-27T17:20:28;96530;;;-1.1;77
68891;BME280;55932;48.702;8.884;2023-01-27T17:22:54;96540;;;-1;76.5
68891;BME280;55932;48.702;8.884;2023-01-27T17:25:27;96530;;;-1.1;76.5
68891;BME280;55932;48.702;8.884;2023-01-27T17:27:55;96530;;;-1.1;76.5
68891;BME280;55932;48.702;8.884;2023-01-27T17:30:31;96530;;;-1.1;77
68891;BME280;55932;48.702;8.884;2023-01-27T17:32:56;96540;;;-1.1;77
68891;BME280;55932;48.702;8.884;2023-01-27T17:35:26;96540;;;-1.1;77
68891;BME280;55932;48.702;8.884;2023-01-27T17:42:50;96540;;;-1;77
68891;BME280;55932;48.702;8.884;2023-01-27T17:45:22;96550;;;-1.1;77
68891;BME280;55932;48.702;8.884;2023-01-27T17:47:52;96550;;;-1.1;77
68891;BME280;55932;48.702;8.884;2023-01-27T17:50:24;96550;;;-1.1;77
68891;BME280;55932;48.702;8.884;2023-01-27T17:52:55;96560;;;-1.1;77
68891;BME280;55932;48.702;8.884;2023-01-27T17:55:25;96550;;;-1.1;77
68891;BME280;55932;48.702;8.884;2023-01-27T17:57:58;96550;;;-1;77
68891;BME280;55932;48.702;8.884;2023-01-27T18:02:59;96550;;;-1;77
68891;BME280;55932;48.702;8.884;2023-01-27T18:05:35;96560;;;-1;77
68891;BME280;55932;48.702;8.884;2023-01-27T18:08:07;96560;;;-1;77
68891;BME280;55932;48.702;8.884;2023-01-27T18:15:39;96560;;;-1;77
68891;BME280;55932;48.702;8.884;2023-01-27T18:18:40;96570;;;-1;77
68891;BME280;55932;48.702;8.884;2023-01-27T18:20:39;96570;;;-1;77
68891;BME280;55932;48.702;8.884;2023-01-27T18:23:11;96560;;;-1;77
68891;BME280;55932;48.702;8.884;2023-01-27T18:25:39;96570;;;-1;77
68891;BME280;55932;48.702;8.884;2023-01-27T18:28:09;96570;;;-1;77
68891;BME280;55932;48.702;8.884;2023-01-27T18:33:10;96580;;;-1;77
68891;BME280;55932;48.702;8.884;2023-01-27T18:35:41;96580;;;-1;77
68891;BME280;55932;48.702;8.884;2023-01-27T18:38:28;96580;;;-1;77
68891;BME280;55932;48.702;8.884;2023-01-27T18:40:43;96580;;;-1;77
68891;BME280;55932;48.702;8.884;2023-01-27T18:43:07;96580;;;-1.1;77.5
68891;BME280;55932;48.702;8.884;2023-01-27T18:45:39;96580;;;-1.1;77.5
68891;BME280;55932;48.702;8.884;2023-01-27T18:48:13;96580;;;-1;77.5
68891;BME280;55932;48.702;8.884;2023-01-27T18:50:41;96580;;;-1;77
68891;BME280;55932;48.702;8.884;2023-01-27T18:53:13;96580;;;-1;77
68891;BME280;55932;48.702;8.884;2023-01-27T18:55:42;96580;;;-1;77.5
68891;BME280;55932;48.702;8.884;2023-01-27T19:03:11;96580;;;-1;77.5
68891;BME280;55932;48.702;8.884;2023-01-27T19:05:39;96570;;;-1;77.5
68891;BME280;55932;48.702;8.884;2023-01-27T19:08:13;96580;;;-1;77.5
68891;BME280;55932;48.702;8.884;2023-01-27T19:15:44;96580;;;-1;77
68891;BME280;55932;48.702;8.884;2023-01-27T19:21:11;96580;;;-1;77
68891;BME280;55932;48.702;8.884;2023-01-27T19:23:26;96580;;;-1;77.5
68891;BME280;55932;48.702;8.884;2023-01-27T19:28:25;96580;;;-1;77
68891;BME280;55932;48.702;8.884;2023-01-27T19:30:51;96580;;;-1;77
68891;BME280;55932;48.702;8.884;2023-01-27T19:33:24;96590;;;-1;77
68891;BME280;55932;48.702;8.884;2023-01-27T19:35:55;96580;;;-1;77
68891;BME280;55932;48.702;8.884;2023-01-27T19:38:24;96580;;;-1.1;77.5
68891;BME280;55932;48.702;8.884;2023-01-27T19:41:02;96590;;;-1;77.5
68891;BME280;55932;48.702;8.884;2023-01-27T19:43:38;96590;;;-1;77
68891;BME280;55932;48.702;8.884;2023-01-27T19:48:26;96590;;;-1;77
68891;BME280;55932;48.702;8.884;2023-01-27T19:50:58;96590;;;-1;77
68891;BME280;55932;48.702;8.884;2023-01-27T19:55:53;96590;;;-1;77
68891;BME280;55932;48.702;8.884;2023-01-27T19:58:24;96600;;;-1;77
68891;BME280;55932;48.702;8.884;2023-01-27T20:00:54;96600;;;-1;77
68891;BME280;55932;48.702;8.884;2023-01-27T20:03:25;96600;;;-1;77
68891;BME280;55932;48.702;8.884;2023-01-27T20:10:57;96610;;;-1;77
68891;BME280;55932;48.702;8.884;2023-01-27T20:13:28;96610;;;-1;77
68891;BME280;55932;48.702;8.884;2023-01-27T20:16:25;96600;;;-0.9;77
68891;BME280;55932;48.702;8.884;2023-01-27T20:18:42;96600;;;-0.9;77
68891;BME280;55932;48.702;8.884;2023-01-27T20:23:36;96610;;;-0.9;77